sensor_id;sensor_type;location;lat;lon;timestamp;P1;durP1;ratioP1;P2;durP2;ratioP2
24090;SDS011;12272;52.426;17.100;2023-05-14T00:03:57;24.37;;;15.77;;
24090;SDS011;12272;52.426;17.100;2023-05-14T00:09:00;24.03;;;15.57;;
24090;SDS011;12272;52.426;17.100;2023-05-14T00:14:03;39.27;;;17.23;;
24090;SDS011;12272;52.426;17.100;2023-05-14T00:19:06;32.00;;;18.40;;
24090;SDS011;12272;52.426;17.100;2023-05-14T00:24:08;28.30;;;18.67;;
24090;SDS011;12272;52.426;17.100;2023-05-14T00:29:11;34.77;;;18.37;;
24090;SDS011;12272;52.426;17.100;2023-05-14T00:34:13;31.00;;;17.07;;
24090;SDS011;12272;52.426;17.100;2023-05-14T00:39:16;34.63;;;17.67;;
24090;SDS011;12272;52.426;17.100;2023-05-14T00:44:19;30.87;;;18.80;;
24090;SDS011;12272;52.426;17.100;2023-05-14T00:49:21;23.57;;;17.77;;
24090;SDS011;12272;52.426;17.100;2023-05-14T00:54:24;33.60;;;18.00;;
24090;SDS011;12272;52.426;17.100;2023-05-14T00:59:28;41.63;;;19.47;;
24090;SDS011;12272;52.426;17.100;2023-05-14T01:04:30;27.80;;;17.80;;
24090;SDS011;12272;52.426;17.100;2023-05-14T01:14:57;28.40;;;17.73;;
24090;SDS011;12272;52.426;17.100;2023-05-14T01:20:05;27.90;;;18.00;;
24090;SDS011;12272;52.426;17.100;2023-05-14T01:25:09;27.67;;;17.57;;
24090;SDS011;12272;52.426;17.100;2023-05-14T01:30:18;29.77;;;17.37;;
24090;SDS011;12272;52.426;17.100;2023-05-14T01:35:27;27.43;;;17.60;;
24090;SDS011;12272;52.426;17.100;2023-05-14T01:40:32;24.43;;;17.07;;
24090;SDS011;12272;52.426;17.100;2023-05-14T01:45:36;28.53;;;16.80;;
24090;SDS011;12272;52.426;17.100;2023-05-14T01:50:39;25.70;;;17.10;;
24090;SDS011;12272;52.426;17.100;2023-05-14T01:55:41;25.00;;;16.37;;
24090;SDS011;12272;52.426;17.100;2023-05-14T02:00:44;26.50;;;17.40;;
24090;SDS011;12272;52.426;17.100;2023-05-14T02:05:46;25.50;;;17.13;;
24090;SDS011;12272;52.426;17.100;2023-05-14T02:10:49;23.17;;;16.57;;
24090;SDS011;12272;52.426;17.100;2023-05-14T02:15:52;24.00;;;16.70;;
24090;SDS011;12272;52.426;17.100;2023-05-14T02:20:54;25.20;;;17.63;;
24090;SDS011;12272;52.426;17.100;2023-05-14T02:25:58;21.97;;;17.10;;
24090;SDS011;12272;52.426;17.100;2023-05-14T02:31:00;26.43;;;16.80;;
24090;SDS011;12272;52.426;17.100;2023-05-14T02:36:04;21.60;;;17.13;;
24090;SDS011;12272;52.426;17.100;2023-05-14T02:41:06;25.80;;;16.80;;
24090;SDS011;12272;52.426;17.100;2023-05-14T02:46:09;21.97;;;16.23;;
24090;SDS011;12272;52.426;17.100;2023-05-14T02:51:11;20.93;;;17.40;;
24090;SDS011;12272;52.426;17.100;2023-05-14T02:56:14;27.73;;;17.03;;
24090;SDS011;12272;52.426;17.100;2023-05-14T03:01:17;21.63;;;16.50;;
24090;SDS011;12272;52.426;17.100;2023-05-14T03:06:20;21.07;;;17.20;;
24090;SDS011;12272;52.426;17.100;2023-05-14T03:11:23;24.83;;;18.90;;
24090;SDS011;12272;52.426;17.100;2023-05-14T03:16:26;29.37;;;17.83;;
24090;SDS011;12272;52.426;17.100;2023-05-14T03:21:28;28.57;;;18.90;;
24090;SDS011;12272;52.426;17.100;2023-05-14T03:26:32;28.30;;;18.40;;
24090;SDS011;12272;52.426;17.100;2023-05-14T03:31:34;29.53;;;18.43;;
24090;SDS011;12272;52.426;17.100;2023-05-14T03:36:37;22.87;;;17.63;;
24090;SDS011;12272;52.426;17.100;2023-05-14T03:41:40;21.40;;;16.30;;
24090;SDS011;12272;52.426;17.100;2023-05-14T03:46:43;24.07;;;17.57;;
24090;SDS011;12272;52.426;17.100;2023-05-14T03:51:45;24.93;;;17.50;;
24090;SDS011;12272;52.426;17.100;2023-05-14T03:56:48;21.60;;;17.80;;
24090;SDS011;12272;52.426;17.100;2023-05-14T04:01:51;24.40;;;17.10;;
24090;SDS011;12272;52.426;17.100;2023-05-14T04:06:53;26.27;;;17.87;;
24090;SDS011;12272;52.426;17.100;2023-05-14T04:11:56;22.53;;;17.57;;
24090;SDS011;12272;52.426;17.100;2023-05-14T04:16:58;23.80;;;16.30;;
24090;SDS011;12272;52.426;17.100;2023-05-14T04:22:01;25.27;;;16.43;;
24090;SDS011;12272;52.426;17.100;2023-05-14T04:27:04;28.37;;;16.87;;
24090;SDS011;12272;52.426;17.100;2023-05-14T04:32:07;28.40;;;16.70;;
24090;SDS011;12272;52.426;17.100;2023-05-14T04:37:10;21.80;;;16.90;;
24090;SDS011;12272;52.426;17.100;2023-05-14T04:42:12;20.17;;;15.87;;
24090;SDS011;12272;52.426;17.100;2023-05-14T04:47:15;19.70;;;15.73;;
24090;SDS011;12272;52.426;17.100;2023-05-14T04:52:17;24.57;;;16.10;;
24090;SDS011;12272;52.426;17.100;2023-05-14T04:57:20;20.33;;;16.77;;
24090;SDS011;12272;52.426;17.100;2023-05-14T05:02:23;22.47;;;17.50;;
24090;SDS011;12272;52.426;17.100;2023-05-14T05:07:25;23.83;;;17.27;;
24090;SDS011;12272;52.426;17.100;2023-05-14T05:12:28;22.27;;;16.90;;
24090;SDS011;12272;52.426;17.100;2023-05-14T05:17:31;25.37;;;16.27;;
24090;SDS011;12272;52.426;17.100;2023-05-14T05:22:34;20.13;;;15.40;;
24090;SDS011;12272;52.426;17.100;2023-05-14T05:27:37;20.20;;;15.90;;
24090;SDS011;12272;52.426;17.100;2023-05-14T05:32:40;22.03;;;16.57;;
24090;SDS011;12272;52.426;17.100;2023-05-14T05:37:42;18.50;;;14.70;;
24090;SDS011;12272;52.426;17.100;2023-05-14T05:42:46;22.17;;;15.47;;
24090;SDS011;12272;52.426;17.100;2023-05-14T05:47:48;26.43;;;17.30;;
24090;SDS011;12272;52.426;17.100;2023-05-14T05:52:51;19.23;;;15.57;;
24090;SDS011;12272;52.426;17.100;2023-05-14T05:57:54;19.93;;;16.17;;
24090;SDS011;12272;52.426;17.100;2023-05-14T06:02:57;22.57;;;16.17;;
24090;SDS011;12272;52.426;17.100;2023-05-14T06:07:59;19.50;;;16.07;;
24090;SDS011;12272;52.426;17.100;2023-05-14T06:13:02;23.17;;;18.47;;
24090;SDS011;12272;52.426;17.100;2023-05-14T06:18:06;23.27;;;17.23;;
24090;SDS011;12272;52.426;17.100;2023-05-14T06:23:09;27.67;;;16.70;;
24090;SDS011;12272;52.426;17.100;2023-05-14T06:28:13;22.67;;;17.83;;
24090;SDS011;12272;52.426;17.100;2023-05-14T06:33:15;37.97;;;18.07;;
24090;SDS011;12272;52.426;17.100;2023-05-14T06:38:21;25.80;;;17.73;;
24090;SDS011;12272;52.426;17.100;2023-05-14T06:43:23;25.23;;;16.13;;
24090;SDS011;12272;52.426;17.100;2023-05-14T06:48:26;22.83;;;15.77;;
24090;SDS011;12272;52.426;17.100;2023-05-14T06:53:30;25.73;;;16.40;;
24090;SDS011;12272;52.426;17.100;2023-05-14T06:58:32;24.73;;;14.80;;
24090;SDS011;12272;52.426;17.100;2023-05-14T07:03:35;18.30;;;14.10;;
24090;SDS011;12272;52.426;17.100;2023-05-14T07:08:38;19.53;;;13.37;;
24090;SDS011;12272;52.426;17.100;2023-05-14T07:13:41;19.90;;;13.13;;
24090;SDS011;12272;52.426;17.100;2023-05-14T07:18:44;17.23;;;12.80;;
24090;SDS011;12272;52.426;17.100;2023-05-14T07:40:20;14.30;;;10.03;;
24090;SDS011;12272;52.426;17.100;2023-05-14T07:45:23;15.73;;;12.47;;
24090;SDS011;12272;52.426;17.100;2023-05-14T07:50:26;15.60;;;10.90;;
24090;SDS011;12272;52.426;17.100;2023-05-14T07:55:28;18.57;;;11.53;;
24090;SDS011;12272;52.426;17.100;2023-05-14T08:00:31;11.23;;;9.23;;
24090;SDS011;12272;52.426;17.100;2023-05-14T08:05:33;12.43;;;8.57;;
24090;SDS011;12272;52.426;17.100;2023-05-14T08:10:36;12.43;;;9.77;;
24090;SDS011;12272;52.426;17.100;2023-05-14T08:15:39;10.67;;;8.87;;
24090;SDS011;12272;52.426;17.100;2023-05-14T08:20:41;10.63;;;7.90;;
24090;SDS011;12272;52.426;17.100;2023-05-14T08:25:44;7.03;;;5.23;;
24090;SDS011;12272;52.426;17.100;2023-05-14T08:30:47;6.57;;;5.90;;
24090;SDS011;12272;52.426;17.100;2023-05-14T08:35:51;11.93;;;6.30;;
24090;SDS011;12272;52.426;17.100;2023-05-14T08:40:58;12.53;;;8.97;;
24090;SDS011;12272;52.426;17.100;2023-05-14T08:46:01;10.95;;;7.78;;
24090;SDS011;12272;52.426;17.100;2023-05-14T08:51:06;8.15;;;4.82;;
24090;SDS011;12272;52.426;17.100;2023-05-14T08:56:10;7.27;;;4.57;;
24090;SDS011;12272;52.426;17.100;2023-05-14T09:01:13;8.90;;;6.80;;
24090;SDS011;12272;52.426;17.100;2023-05-14T09:06:16;8.87;;;6.07;;
24090;SDS011;12272;52.426;17.100;2023-05-14T09:11:20;6.50;;;5.85;;
24090;SDS011;12272;52.426;17.100;2023-05-14T09:16:22;11.40;;;9.33;;
24090;SDS011;12272;52.426;17.100;2023-05-14T09:21:26;6.23;;;4.73;;
24090;SDS011;12272;52.426;17.100;2023-05-14T09:26:31;11.07;;;10.07;;
24090;SDS011;12272;52.426;17.100;2023-05-14T09:31:34;9.30;;;4.55;;
24090;SDS011;12272;52.426;17.100;2023-05-14T09:36:38;11.30;;;3.85;;
24090;SDS011;12272;52.426;17.100;2023-05-14T09:41:40;6.03;;;3.90;;
24090;SDS011;12272;52.426;17.100;2023-05-14T09:46:43;9.30;;;8.30;;
24090;SDS011;12272;52.426;17.100;2023-05-14T09:51:49;12.43;;;9.37;;
24090;SDS011;12272;52.426;17.100;2023-05-14T09:56:52;6.03;;;5.33;;
24090;SDS011;12272;52.426;17.100;2023-05-14T10:01:56;8.98;;;8.07;;
24090;SDS011;12272;52.426;17.100;2023-05-14T10:07:00;13.88;;;6.60;;
24090;SDS011;12272;52.426;17.100;2023-05-14T10:12:03;8.47;;;7.37;;
24090;SDS011;12272;52.426;17.100;2023-05-14T10:17:06;5.85;;;5.13;;
24090;SDS011;12272;52.426;17.100;2023-05-14T10:22:21;13.55;;;8.07;;
24090;SDS011;12272;52.426;17.100;2023-05-14T10:27:24;14.60;;;5.83;;
24090;SDS011;12272;52.426;17.100;2023-05-14T10:32:29;10.60;;;7.20;;
24090;SDS011;12272;52.426;17.100;2023-05-14T10:37:34;8.73;;;7.82;;
24090;SDS011;12272;52.426;17.100;2023-05-14T10:42:37;12.32;;;11.07;;
24090;SDS011;12272;52.426;17.100;2023-05-14T10:47:45;7.88;;;7.07;;
24090;SDS011;12272;52.426;17.100;2023-05-14T10:52:48;9.43;;;8.07;;
24090;SDS011;12272;52.426;17.100;2023-05-14T10:57:52;7.93;;;6.10;;
24090;SDS011;12272;52.426;17.100;2023-05-14T11:02:54;11.18;;;5.82;;
24090;SDS011;12272;52.426;17.100;2023-05-14T11:07:58;5.30;;;4.50;;
24090;SDS011;12272;52.426;17.100;2023-05-14T11:13:03;10.93;;;4.93;;
24090;SDS011;12272;52.426;17.100;2023-05-14T11:18:06;5.22;;;3.85;;
24090;SDS011;12272;52.426;17.100;2023-05-14T11:23:11;6.18;;;4.60;;
24090;SDS011;12272;52.426;17.100;2023-05-14T11:28:14;7.82;;;4.50;;
24090;SDS011;12272;52.426;17.100;2023-05-14T11:33:17;6.63;;;5.40;;
24090;SDS011;12272;52.426;17.100;2023-05-14T11:38:20;8.10;;;5.10;;
24090;SDS011;12272;52.426;17.100;2023-05-14T11:43:23;8.05;;;6.68;;
24090;SDS011;12272;52.426;17.100;2023-05-14T11:48:30;7.68;;;5.40;;
24090;SDS011;12272;52.426;17.100;2023-05-14T11:53:33;6.72;;;5.65;;
24090;SDS011;12272;52.426;17.100;2023-05-14T11:58:36;6.22;;;5.63;;
24090;SDS011;12272;52.426;17.100;2023-05-14T12:03:38;7.93;;;5.88;;
24090;SDS011;12272;52.426;17.100;2023-05-14T12:08:41;6.57;;;5.38;;
24090;SDS011;12272;52.426;17.100;2023-05-14T12:13:44;6.53;;;5.85;;
24090;SDS011;12272;52.426;17.100;2023-05-14T12:18:46;9.05;;;4.50;;
24090;SDS011;12272;52.426;17.100;2023-05-14T12:23:55;13.67;;;8.57;;
24090;SDS011;12272;52.426;17.100;2023-05-14T12:28:59;20.77;;;15.40;;
24090;SDS011;12272;52.426;17.100;2023-05-14T12:34:03;8.57;;;6.60;;
24090;SDS011;12272;52.426;17.100;2023-05-14T12:39:07;9.27;;;6.15;;
24090;SDS011;12272;52.426;17.100;2023-05-14T12:44:11;5.50;;;5.00;;
24090;SDS011;12272;52.426;17.100;2023-05-14T12:49:13;8.75;;;5.72;;
24090;SDS011;12272;52.426;17.100;2023-05-14T12:54:16;9.30;;;5.90;;
24090;SDS011;12272;52.426;17.100;2023-05-14T12:59:18;12.70;;;7.20;;
24090;SDS011;12272;52.426;17.100;2023-05-14T13:04:21;8.55;;;7.75;;
24090;SDS011;12272;52.426;17.100;2023-05-14T13:09:23;8.20;;;4.72;;
24090;SDS011;12272;52.426;17.100;2023-05-14T13:14:26;9.25;;;8.32;;
24090;SDS011;12272;52.426;17.100;2023-05-14T13:19:28;7.82;;;5.15;;
24090;SDS011;12272;52.426;17.100;2023-05-14T13:24:31;10.52;;;6.00;;
24090;SDS011;12272;52.426;17.100;2023-05-14T13:29:33;12.48;;;5.20;;
24090;SDS011;12272;52.426;17.100;2023-05-14T13:34:36;8.00;;;5.85;;
24090;SDS011;12272;52.426;17.100;2023-05-14T13:39:39;6.70;;;6.10;;
24090;SDS011;12272;52.426;17.100;2023-05-14T13:44:41;6.30;;;5.43;;
24090;SDS011;12272;52.426;17.100;2023-05-14T13:49:44;8.18;;;5.15;;
24090;SDS011;12272;52.426;17.100;2023-05-14T13:54:47;11.10;;;7.10;;
24090;SDS011;12272;52.426;17.100;2023-05-14T13:59:49;8.20;;;4.78;;
24090;SDS011;12272;52.426;17.100;2023-05-14T14:04:53;12.00;;;7.78;;
24090;SDS011;12272;52.426;17.100;2023-05-14T14:09:56;14.20;;;4.82;;
24090;SDS011;12272;52.426;17.100;2023-05-14T14:14:58;10.40;;;9.10;;
24090;SDS011;12272;52.426;17.100;2023-05-14T14:20:01;8.18;;;7.30;;
24090;SDS011;12272;52.426;17.100;2023-05-14T14:25:07;9.45;;;7.00;;
24090;SDS011;12272;52.426;17.100;2023-05-14T14:30:10;7.30;;;6.47;;
24090;SDS011;12272;52.426;17.100;2023-05-14T14:35:18;8.10;;;6.57;;
24090;SDS011;12272;52.426;17.100;2023-05-14T14:40:21;5.70;;;5.10;;
24090;SDS011;12272;52.426;17.100;2023-05-14T14:45:24;10.10;;;9.10;;
24090;SDS011;12272;52.426;17.100;2023-05-14T14:50:27;8.02;;;6.70;;
24090;SDS011;12272;52.426;17.100;2023-05-14T14:55:29;9.27;;;7.82;;
24090;SDS011;12272;52.426;17.100;2023-05-14T15:00:32;6.97;;;6.32;;
24090;SDS011;12272;52.426;17.100;2023-05-14T15:05:34;8.65;;;7.10;;
24090;SDS011;12272;52.426;17.100;2023-05-14T15:10:37;9.93;;;7.93;;
24090;SDS011;12272;52.426;17.100;2023-05-14T15:15:40;10.20;;;8.85;;
24090;SDS011;12272;52.426;17.100;2023-05-14T15:20:42;10.45;;;9.05;;
24090;SDS011;12272;52.426;17.100;2023-05-14T15:25:45;4.28;;;3.78;;
24090;SDS011;12272;52.426;17.100;2023-05-14T15:30:47;12.95;;;9.13;;
24090;SDS011;12272;52.426;17.100;2023-05-14T15:35:50;12.13;;;9.60;;
24090;SDS011;12272;52.426;17.100;2023-05-14T15:40:53;6.65;;;6.05;;
24090;SDS011;12272;52.426;17.100;2023-05-14T15:45:55;6.20;;;5.38;;
24090;SDS011;12272;52.426;17.100;2023-05-14T15:50:58;5.88;;;5.25;;
24090;SDS011;12272;52.426;17.100;2023-05-14T15:56:01;4.30;;;3.90;;
24090;SDS011;12272;52.426;17.100;2023-05-14T16:01:04;9.02;;;8.13;;
24090;SDS011;12272;52.426;17.100;2023-05-14T16:06:06;6.93;;;6.25;;
24090;SDS011;12272;52.426;17.100;2023-05-14T16:11:09;4.57;;;3.53;;
24090;SDS011;12272;52.426;17.100;2023-05-14T16:16:11;5.95;;;5.03;;
24090;SDS011;12272;52.426;17.100;2023-05-14T16:21:14;8.55;;;4.75;;
24090;SDS011;12272;52.426;17.100;2023-05-14T16:26:16;12.75;;;4.60;;
24090;SDS011;12272;52.426;17.100;2023-05-14T16:31:19;12.70;;;5.03;;
24090;SDS011;12272;52.426;17.100;2023-05-14T16:36:21;8.43;;;3.80;;
24090;SDS011;12272;52.426;17.100;2023-05-14T16:41:25;16.63;;;4.57;;
24090;SDS011;12272;52.426;17.100;2023-05-14T16:46:27;27.00;;;6.68;;
24090;SDS011;12272;52.426;17.100;2023-05-14T16:51:31;8.13;;;3.50;;
24090;SDS011;12272;52.426;17.100;2023-05-14T16:56:34;9.48;;;3.30;;
24090;SDS011;12272;52.426;17.100;2023-05-14T17:01:37;2.30;;;1.90;;
24090;SDS011;12272;52.426;17.100;2023-05-14T17:06:40;4.88;;;2.45;;
24090;SDS011;12272;52.426;17.100;2023-05-14T17:11:42;3.15;;;2.05;;
24090;SDS011;12272;52.426;17.100;2023-05-14T17:16:45;10.15;;;3.20;;
24090;SDS011;12272;52.426;17.100;2023-05-14T17:21:47;7.00;;;2.40;;
24090;SDS011;12272;52.426;17.100;2023-05-14T17:26:50;4.55;;;3.08;;
24090;SDS011;12272;52.426;17.100;2023-05-14T17:31:52;7.68;;;3.60;;
24090;SDS011;12272;52.426;17.100;2023-05-14T17:36:56;4.93;;;2.70;;
24090;SDS011;12272;52.426;17.100;2023-05-14T17:41:59;7.55;;;4.10;;
24090;SDS011;12272;52.426;17.100;2023-05-14T17:47:01;6.20;;;2.50;;
24090;SDS011;12272;52.426;17.100;2023-05-14T17:52:05;8.07;;;2.47;;
24090;SDS011;12272;52.426;17.100;2023-05-14T17:57:08;7.22;;;2.60;;
24090;SDS011;12272;52.426;17.100;2023-05-14T18:02:10;5.65;;;2.60;;
24090;SDS011;12272;52.426;17.100;2023-05-14T18:07:13;7.10;;;2.88;;
24090;SDS011;12272;52.426;17.100;2023-05-14T18:12:15;3.22;;;2.60;;
24090;SDS011;12272;52.426;17.100;2023-05-14T18:17:18;5.88;;;3.22;;
24090;SDS011;12272;52.426;17.100;2023-05-14T18:22:20;4.80;;;3.25;;
24090;SDS011;12272;52.426;17.100;2023-05-14T18:27:23;4.13;;;3.08;;
24090;SDS011;12272;52.426;17.100;2023-05-14T18:32:25;4.07;;;3.10;;
24090;SDS011;12272;52.426;17.100;2023-05-14T18:37:28;3.90;;;3.10;;
24090;SDS011;12272;52.426;17.100;2023-05-14T18:42:31;53.88;;;5.68;;
24090;SDS011;12272;52.426;17.100;2023-05-14T18:47:34;28.57;;;4.50;;
24090;SDS011;12272;52.426;17.100;2023-05-14T18:52:36;6.53;;;3.17;;
24090;SDS011;12272;52.426;17.100;2023-05-14T18:57:39;5.38;;;3.47;;
24090;SDS011;12272;52.426;17.100;2023-05-14T19:02:42;4.00;;;2.90;;
24090;SDS011;12272;52.426;17.100;2023-05-14T19:07:44;4.60;;;2.70;;
24090;SDS011;12272;52.426;17.100;2023-05-14T19:12:48;7.10;;;4.07;;
24090;SDS011;12272;52.426;17.100;2023-05-14T19:17:51;7.37;;;3.60;;
24090;SDS011;12272;52.426;17.100;2023-05-14T19:22:55;7.00;;;3.93;;
24090;SDS011;12272;52.426;17.100;2023-05-14T19:27:57;16.80;;;5.03;;
24090;SDS011;12272;52.426;17.100;2023-05-14T19:33:02;6.77;;;4.30;;
24090;SDS011;12272;52.426;17.100;2023-05-14T19:38:05;10.47;;;5.10;;
24090;SDS011;12272;52.426;17.100;2023-05-14T19:43:07;4.97;;;4.40;;
24090;SDS011;12272;52.426;17.100;2023-05-14T19:48:11;6.83;;;5.20;;
24090;SDS011;12272;52.426;17.100;2023-05-14T19:53:14;10.20;;;6.60;;
24090;SDS011;12272;52.426;17.100;2023-05-14T19:58:17;10.73;;;5.07;;
24090;SDS011;12272;52.426;17.100;2023-05-14T20:03:19;6.20;;;4.65;;
24090;SDS011;12272;52.426;17.100;2023-05-14T20:08:26;14.15;;;6.65;;
24090;SDS011;12272;52.426;17.100;2023-05-14T20:13:29;16.20;;;7.60;;
24090;SDS011;12272;52.426;17.100;2023-05-14T20:18:37;10.15;;;5.97;;
24090;SDS011;12272;52.426;17.100;2023-05-14T20:23:39;5.90;;;4.80;;
24090;SDS011;12272;52.426;17.100;2023-05-14T20:28:42;9.80;;;5.10;;
24090;SDS011;12272;52.426;17.100;2023-05-14T20:33:44;9.18;;;5.40;;
24090;SDS011;12272;52.426;17.100;2023-05-14T20:38:47;8.20;;;5.55;;
24090;SDS011;12272;52.426;17.100;2023-05-14T20:43:50;9.97;;;6.60;;
24090;SDS011;12272;52.426;17.100;2023-05-14T20:48:52;5.47;;;4.60;;
24090;SDS011;12272;52.426;17.100;2023-05-14T20:53:56;7.47;;;5.45;;
24090;SDS011;12272;52.426;17.100;2023-05-14T20:58:59;7.90;;;5.45;;
24090;SDS011;12272;52.426;17.100;2023-05-14T21:04:01;7.20;;;4.57;;
24090;SDS011;12272;52.426;17.100;2023-05-14T21:09:04;8.52;;;4.82;;
24090;SDS011;12272;52.426;17.100;2023-05-14T21:14:07;7.40;;;5.88;;
24090;SDS011;12272;52.426;17.100;2023-05-14T21:19:09;5.70;;;4.70;;
24090;SDS011;12272;52.426;17.100;2023-05-14T21:24:15;7.28;;;5.38;;
24090;SDS011;12272;52.426;17.100;2023-05-14T21:29:17;4.85;;;3.95;;
24090;SDS011;12272;52.426;17.100;2023-05-14T21:34:20;7.07;;;6.30;;
24090;SDS011;12272;52.426;17.100;2023-05-14T21:39:23;4.93;;;4.40;;
24090;SDS011;12272;52.426;17.100;2023-05-14T21:44:25;5.43;;;4.80;;
24090;SDS011;12272;52.426;17.100;2023-05-14T21:49:28;6.53;;;4.78;;
24090;SDS011;12272;52.426;17.100;2023-05-14T21:54:30;4.68;;;4.28;;
24090;SDS011;12272;52.426;17.100;2023-05-14T21:59:32;6.50;;;5.80;;
24090;SDS011;12272;52.426;17.100;2023-05-14T22:04:37;5.10;;;4.60;;
24090;SDS011;12272;52.426;17.100;2023-05-14T22:09:40;4.55;;;3.72;;
24090;SDS011;12272;52.426;17.100;2023-05-14T22:14:42;7.18;;;5.00;;
24090;SDS011;12272;52.426;17.100;2023-05-14T22:19:45;4.82;;;4.00;;
24090;SDS011;12272;52.426;17.100;2023-05-14T22:24:47;7.70;;;4.97;;
24090;SDS011;12272;52.426;17.100;2023-05-14T22:29:50;6.00;;;4.95;;
24090;SDS011;12272;52.426;17.100;2023-05-14T22:34:52;6.80;;;5.53;;
24090;SDS011;12272;52.426;17.100;2023-05-14T22:39:55;9.80;;;6.10;;
24090;SDS011;12272;52.426;17.100;2023-05-14T22:44:58;6.97;;;4.63;;
24090;SDS011;12272;52.426;17.100;2023-05-14T22:50:00;7.82;;;4.68;;
24090;SDS011;12272;52.426;17.100;2023-05-14T22:55:03;7.20;;;4.90;;
24090;SDS011;12272;52.426;17.100;2023-05-14T23:00:06;7.23;;;5.53;;
24090;SDS011;12272;52.426;17.100;2023-05-14T23:05:09;4.63;;;4.07;;
24090;SDS011;12272;52.426;17.100;2023-05-14T23:10:12;5.67;;;4.87;;
24090;SDS011;12272;52.426;17.100;2023-05-14T23:15:15;6.20;;;5.50;;
24090;SDS011;12272;52.426;17.100;2023-05-14T23:20:18;5.03;;;4.20;;
24090;SDS011;12272;52.426;17.100;2023-05-14T23:25:20;5.10;;;4.60;;
24090;SDS011;12272;52.426;17.100;2023-05-14T23:30:23;5.90;;;5.10;;
24090;SDS011;12272;52.426;17.100;2023-05-14T23:35:25;8.70;;;5.10;;
24090;SDS011;12272;52.426;17.100;2023-05-14T23:40:28;6.05;;;5.35;;
24090;SDS011;12272;52.426;17.100;2023-05-14T23:45:31;6.15;;;5.55;;
24090;SDS011;12272;52.426;17.100;2023-05-14T23:50:33;5.73;;;4.73;;
24090;SDS011;12272;52.426;17.100;2023-05-14T23:55:36;5.63;;;5.10;;
